createdAt,value
2023-02-05T00:01:32.550Z,0.90
2023-02-05T00:03:59.739Z,0.90
2023-02-05T00:06:27.109Z,1.00
2023-02-05T00:08:53.978Z,1.00
2023-02-05T00:11:21.006Z,1.00
2023-02-05T00:13:47.829Z,0.90
2023-02-05T00:16:18.151Z,1.00
2023-02-05T00:18:46.191Z,1.00
2023-02-05T00:21:14.324Z,0.90
2023-02-05T00:23:41.820Z,1.00
2023-02-05T00:26:10.650Z,1.00
2023-02-05T00:28:38.294Z,1.00
2023-02-05T00:31:12.413Z,1.00
2023-02-05T00:33:39.491Z,1.10
2023-02-05T00:36:07.148Z,1.10
2023-02-05T00:38:34.076Z,1.10
2023-02-05T00:41:01.337Z,1.10
2023-02-05T00:43:28.188Z,1.10
2023-02-05T00:45:55.543Z,1.10
2023-02-05T00:48:22.948Z,1.00
2023-02-05T00:50:51.037Z,1.10
2023-02-05T00:53:19.088Z,1.00
2023-02-05T00:55:46.215Z,0.90
2023-02-05T00:58:13.179Z,0.80
2023-02-05T01:00:40.612Z,0.70
2023-02-05T01:03:07.795Z,0.70
2023-02-05T01:05:38.547Z,0.80
2023-02-05T01:08:15.244Z,0.70
2023-02-05T01:10:47.295Z,0.60
2023-02-05T01:13:16.905Z,0.60
2023-02-05T01:15:44.839Z,0.60
2023-02-05T01:18:11.728Z,0.70
2023-02-05T01:20:39.782Z,0.70
2023-02-05T01:23:06.651Z,0.60
2023-02-05T01:25:34.169Z,0.70
2023-02-05T01:28:01.242Z,0.80
2023-02-05T01:30:28.085Z,0.80
2023-02-05T01:32:55.130Z,0.80
2023-02-05T01:35:21.916Z,0.70
2023-02-05T01:37:49.297Z,0.70
2023-02-05T01:40:17.435Z,0.80
2023-02-05T01:42:44.385Z,0.80
2023-02-05T01:45:23.257Z,0.80
2023-02-05T01:47:52.218Z,0.80
2023-02-05T01:50:26.008Z,0.90
2023-02-05T01:52:54.194Z,1.00
2023-02-05T01:55:21.877Z,1.20
2023-02-05T01:57:50.698Z,1.20
2023-02-05T02:00:17.736Z,1.30
2023-02-05T02:02:44.927Z,1.40
2023-02-05T02:05:18.098Z,1.40
2023-02-05T02:07:45.852Z,1.50
2023-02-05T02:10:15.392Z,1.60
2023-02-05T02:12:45.042Z,1.60
2023-02-05T02:15:19.206Z,1.60
2023-02-05T02:17:50.108Z,1.50
2023-02-05T02:20:22.945Z,1.60
2023-02-05T02:23:08.001Z,1.60
2023-02-05T02:25:47.808Z,1.60
2023-02-05T02:28:20.175Z,1.60
2023-02-05T02:30:57.119Z,1.60
2023-02-05T02:33:35.118Z,1.60
2023-02-05T02:36:21.195Z,1.70
2023-02-05T02:39:17.001Z,1.80
2023-02-05T02:41:51.734Z,1.80
2023-02-05T02:44:41.235Z,1.80
2023-02-05T02:47:15.209Z,1.90
2023-02-05T02:49:48.881Z,1.90
2023-02-05T02:52:18.784Z,2.00
2023-02-05T02:54:48.759Z,2.00
2023-02-05T02:57:17.543Z,2.00
2023-02-05T02:59:48.550Z,2.00
2023-02-05T03:02:16.963Z,1.90
2023-02-05T03:04:51.931Z,2.00
2023-02-05T03:07:47.330Z,2.00
2023-02-05T03:10:36.569Z,2.00
2023-02-05T03:13:03.428Z,1.90
2023-02-05T03:15:30.779Z,1.90
2023-02-05T03:17:58.071Z,1.80
2023-02-05T03:20:29.775Z,1.80
2023-02-05T03:22:57.007Z,1.70
2023-02-05T03:25:27.959Z,1.70
2023-02-05T03:27:55.829Z,1.70
2023-02-05T03:30:28.021Z,1.70
2023-02-05T03:33:21.021Z,1.70
2023-02-05T03:36:16.860Z,1.80
2023-02-05T03:39:24.975Z,1.80
2023-02-05T03:42:21.316Z,1.80
2023-02-05T03:45:21.964Z,1.70
2023-02-05T03:48:16.728Z,1.70
2023-02-05T03:51:08.624Z,1.70
2023-02-05T03:54:05.773Z,1.70
2023-02-05T03:56:47.143Z,1.70
2023-02-05T03:59:16.385Z,1.80
2023-02-05T04:01:44.715Z,1.80
2023-02-05T04:04:12.238Z,1.90
2023-02-05T04:06:39.562Z,1.90
2023-02-05T04:09:06.756Z,1.90
2023-02-05T04:11:33.703Z,1.90
2023-02-05T04:14:00.472Z,1.90
2023-02-05T04:16:27.403Z,1.90
2023-02-05T04:18:54.256Z,1.90
2023-02-05T04:21:21.369Z,1.90
2023-02-05T04:23:48.138Z,1.90
2023-02-05T04:26:15.302Z,1.90
2023-02-05T04:28:42.205Z,1.90
2023-02-05T04:31:11.683Z,1.90
2023-02-05T04:33:40.234Z,1.90
2023-02-05T04:36:08.445Z,1.90
2023-02-05T04:38:35.463Z,1.90
2023-02-05T04:41:02.450Z,1.90
2023-02-05T04:43:29.424Z,1.80
2023-02-05T04:45:56.692Z,1.90
2023-02-05T04:48:23.510Z,1.90
2023-02-05T04:50:50.451Z,1.80
2023-02-05T04:53:17.295Z,1.80
2023-02-05T04:55:44.122Z,1.80
2023-02-05T04:58:10.880Z,1.90
2023-02-05T05:00:37.628Z,1.80
2023-02-05T05:03:04.690Z,1.90
2023-02-05T05:05:31.540Z,1.90
2023-02-05T05:08:00.052Z,1.90
2023-02-05T05:10:27.232Z,1.90
2023-02-05T05:12:54.337Z,1.90
2023-02-05T05:15:24.278Z,1.80
2023-02-05T05:17:53.269Z,1.70
2023-02-05T05:20:20.184Z,1.70
2023-02-05T05:22:46.978Z,1.60
2023-02-05T05:25:13.800Z,1.70
2023-02-05T05:27:40.664Z,1.70
2023-02-05T05:30:08.544Z,1.60
2023-02-05T05:32:35.634Z,1.70
2023-02-05T05:35:03.012Z,1.80
2023-02-05T05:37:30.056Z,1.80
2023-02-05T05:40:15.520Z,1.80
2023-02-05T05:43:02.289Z,1.90
2023-02-05T05:45:29.391Z,2.00
2023-02-05T05:47:56.220Z,2.10
2023-02-05T05:50:23.065Z,2.10
2023-02-05T05:52:50.176Z,2.20
2023-02-05T05:55:17.092Z,2.20
2023-02-05T05:57:43.892Z,2.30
2023-02-05T06:00:11.560Z,2.30
2023-02-05T06:02:44.415Z,2.30
2023-02-05T06:05:12.846Z,2.30
2023-02-05T06:07:39.742Z,2.20
2023-02-05T06:10:07.049Z,2.20
2023-02-05T06:12:33.831Z,2.10
2023-02-05T06:15:00.614Z,2.10
2023-02-05T06:17:27.993Z,2.20
2023-02-05T06:19:54.858Z,2.30
2023-02-05T06:22:21.788Z,2.30
2023-02-05T06:24:48.694Z,2.40
2023-02-05T06:27:15.547Z,2.50
2023-02-05T06:29:42.384Z,2.80
2023-02-05T06:32:09.762Z,2.90
2023-02-05T06:34:36.534Z,3.00
2023-02-05T06:37:06.140Z,3.20
2023-02-05T06:39:33.028Z,3.30
2023-02-05T06:42:00.099Z,3.30
2023-02-05T06:44:26.911Z,3.40
2023-02-05T06:46:53.670Z,3.40
2023-02-05T06:49:20.633Z,3.40
2023-02-05T06:51:47.395Z,3.40
2023-02-05T06:54:14.874Z,3.50
2023-02-05T06:56:41.731Z,3.50
2023-02-05T06:59:08.656Z,3.50
2023-02-05T07:01:35.580Z,3.50
2023-02-05T07:04:02.947Z,3.50
2023-02-05T07:06:29.709Z,3.50
2023-02-05T07:08:56.590Z,3.50
2023-02-05T07:11:24.199Z,3.50
2023-02-05T07:13:51.290Z,3.50
2023-02-05T07:16:18.462Z,3.50
2023-02-05T07:18:45.332Z,3.50
2023-02-05T07:21:16.081Z,3.60
2023-02-05T07:23:43.343Z,3.60
2023-02-05T07:26:17.468Z,3.60
2023-02-05T07:28:44.847Z,3.60
2023-02-05T07:31:18.780Z,3.70
2023-02-05T07:33:47.455Z,3.70
2023-02-05T07:36:17.625Z,3.60
2023-02-05T07:38:46.318Z,3.60
2023-02-05T07:41:15.300Z,3.60
2023-02-05T07:43:42.227Z,3.60
2023-02-05T07:46:12.101Z,3.60
2023-02-05T07:48:38.984Z,3.60
2023-02-05T07:51:06.594Z,3.70
2023-02-05T07:53:33.683Z,3.70
2023-02-05T07:56:04.630Z,3.70
2023-02-05T07:58:31.724Z,3.70
2023-02-05T08:01:06.152Z,3.70
2023-02-05T08:03:33.293Z,3.70
2023-02-05T08:06:03.234Z,3.70
2023-02-05T08:08:30.063Z,3.70
2023-02-05T08:11:02.662Z,3.70
2023-02-05T08:13:30.902Z,3.80
2023-02-05T08:15:57.935Z,3.80
2023-02-05T08:18:25.220Z,3.80
2023-02-05T08:20:54.298Z,3.50
2023-02-05T08:23:22.401Z,3.30
2023-02-05T08:25:53.005Z,3.20
2023-02-05T08:28:24.030Z,3.10
2023-02-05T08:30:51.265Z,3.10
2023-02-05T08:33:18.502Z,3.10
2023-02-05T08:35:48.734Z,3.10
2023-02-05T08:38:15.557Z,3.10
2023-02-05T08:40:42.416Z,3.10
2023-02-05T08:43:09.367Z,3.10
2023-02-05T08:45:36.547Z,3.20
2023-02-05T08:48:04.128Z,3.20
2023-02-05T08:50:31.049Z,3.30
2023-02-05T08:52:57.924Z,3.30
2023-02-05T08:55:24.733Z,3.30
2023-02-05T08:57:51.644Z,3.30
2023-02-05T09:00:19.456Z,3.30
2023-02-05T09:02:46.361Z,3.40
2023-02-05T09:05:16.024Z,3.50
2023-02-05T09:07:43.148Z,3.50
2023-02-05T09:10:12.540Z,3.50
2023-02-05T09:12:39.842Z,3.50
2023-02-05T09:15:07.951Z,3.50
2023-02-05T09:17:34.989Z,3.50
2023-02-05T09:20:01.889Z,3.50
2023-02-05T09:22:28.853Z,3.60
2023-02-05T09:24:55.650Z,3.60
2023-02-05T09:27:22.429Z,3.60
2023-02-05T09:29:49.197Z,3.70
2023-02-05T09:32:15.977Z,3.70
2023-02-05T09:34:42.877Z,3.70
2023-02-05T09:37:09.722Z,3.70
2023-02-05T09:42:52.487Z,3.70
2023-02-05T09:45:31.083Z,3.80
2023-02-05T09:48:07.974Z,3.90
2023-02-05T09:50:35.729Z,3.90
2023-02-05T09:53:07.401Z,4.00
2023-02-05T09:55:38.813Z,4.10
2023-02-05T09:58:11.555Z,4.20
2023-02-05T10:01:20.605Z,4.30
2023-02-05T10:03:54.825Z,4.60
2023-02-05T10:07:05.996Z,4.60
2023-02-05T10:09:35.805Z,4.80
2023-02-05T10:12:25.709Z,4.80
2023-02-05T10:15:01.145Z,4.90
2023-02-05T10:18:05.626Z,5.10
2023-02-05T10:20:41.528Z,5.20
2023-02-05T10:23:28.060Z,5.10
2023-02-05T10:26:07.360Z,4.90
2023-02-05T10:28:57.409Z,5.00
2023-02-05T10:31:34.809Z,5.00
2023-02-05T10:34:33.679Z,4.80
2023-02-05T10:37:03.203Z,4.90
2023-02-05T10:39:33.842Z,5.00
2023-02-05T10:42:26.952Z,5.10
2023-02-05T10:45:03.639Z,5.20
2023-02-05T10:47:43.633Z,5.10
2023-02-05T10:50:28.936Z,5.20
2023-02-05T10:52:56.649Z,5.20
2023-02-05T10:55:23.690Z,5.20
2023-02-05T10:57:50.640Z,5.20
2023-02-05T11:00:22.263Z,5.20
2023-02-05T11:02:55.496Z,5.20
2023-02-05T11:05:34.735Z,5.40
2023-02-05T11:08:01.937Z,5.30
2023-02-05T11:10:31.728Z,5.30
2023-02-05T11:13:02.041Z,5.30
2023-02-05T11:15:33.418Z,5.40
2023-02-05T11:18:03.800Z,5.60
2023-02-05T11:20:40.706Z,5.80
2023-02-05T11:23:20.301Z,6.00
2023-02-05T11:26:16.230Z,6.20
2023-02-05T11:28:43.671Z,6.30
2023-02-05T11:31:34.761Z,6.20
2023-02-05T11:34:07.655Z,6.00
2023-02-05T11:36:39.283Z,5.80
2023-02-05T11:39:07.301Z,5.70
2023-02-05T11:41:48.792Z,5.60
2023-02-05T11:44:24.091Z,5.70
2023-02-05T11:46:57.582Z,5.70
2023-02-05T11:49:32.515Z,5.70
2023-02-05T11:52:01.671Z,5.70
2023-02-05T11:54:32.639Z,5.80
2023-02-05T11:57:27.334Z,5.70
2023-02-05T11:59:58.244Z,5.70
2023-02-05T12:02:30.925Z,5.70
2023-02-05T12:05:20.499Z,5.70
2023-02-05T12:07:54.909Z,5.70
2023-02-05T12:10:38.851Z,5.70
2023-02-05T12:13:18.936Z,5.50
2023-02-05T12:16:10.110Z,5.60
2023-02-05T12:18:55.778Z,5.60
2023-02-05T12:21:48.383Z,5.60
2023-02-05T12:24:42.413Z,5.60
2023-02-05T12:27:22.335Z,5.60
2023-02-05T12:30:20.857Z,5.50
2023-02-05T12:33:00.128Z,5.50
2023-02-05T12:35:40.760Z,5.50
2023-02-05T12:38:36.070Z,5.40
2023-02-05T12:41:22.891Z,5.40
2023-02-05T12:43:53.694Z,5.40
2023-02-05T12:46:39.019Z,5.50
2023-02-05T12:49:13.828Z,5.40
2023-02-05T12:51:58.036Z,5.40
2023-02-05T12:54:40.752Z,5.40
2023-02-05T12:57:12.240Z,5.40
2023-02-05T12:59:41.742Z,5.40
2023-02-05T13:02:17.566Z,5.40
2023-02-05T13:05:09.805Z,5.50
2023-02-05T13:08:07.654Z,5.50
2023-02-05T13:11:02.046Z,5.40
2023-02-05T13:13:37.045Z,5.30
2023-02-05T13:16:11.373Z,5.30
2023-02-05T13:19:09.290Z,5.30
2023-02-05T13:21:55.070Z,5.30
2023-02-05T13:25:05.496Z,5.30
2023-02-05T13:27:59.067Z,5.30
2023-02-05T13:30:44.065Z,5.30
2023-02-05T13:33:11.052Z,5.30
2023-02-05T13:35:49.659Z,5.30
2023-02-05T13:38:54.157Z,5.30
2023-02-05T13:42:01.713Z,5.30
2023-02-05T13:44:46.982Z,5.30
2023-02-05T13:47:37.612Z,5.20
2023-02-05T13:50:26.566Z,5.20
2023-02-05T13:52:53.316Z,5.10
2023-02-05T13:55:30.046Z,5.20
2023-02-05T13:58:09.063Z,5.20
2023-02-05T14:00:39.447Z,5.10
2023-02-05T14:03:09.768Z,5.10
2023-02-05T14:05:39.660Z,5.20
2023-02-05T14:08:17.166Z,5.20
2023-02-05T14:10:45.186Z,5.20
2023-02-05T14:13:22.529Z,5.10
2023-02-05T14:15:50.570Z,5.10
2023-02-05T14:18:40.051Z,5.10
2023-02-05T14:21:31.511Z,5.00
2023-02-05T14:24:03.254Z,5.00
2023-02-05T14:26:48.681Z,5.00
2023-02-05T14:29:48.108Z,5.00
2023-02-05T14:32:37.964Z,4.90
2023-02-05T14:35:29.385Z,5.00
2023-02-05T14:38:21.799Z,4.90
2023-02-05T14:41:13.321Z,5.00
2023-02-05T14:43:43.546Z,5.00
2023-02-05T14:46:40.625Z,5.00
2023-02-05T14:49:29.577Z,5.00
2023-02-05T14:52:03.220Z,4.90
2023-02-05T14:54:50.026Z,5.00
2023-02-05T14:57:52.982Z,4.90
2023-02-05T15:00:26.007Z,4.90
2023-02-05T15:02:55.946Z,5.00
2023-02-05T15:05:50.174Z,5.00
2023-02-05T15:08:19.842Z,5.00
2023-02-05T15:10:56.084Z,4.90
2023-02-05T15:13:25.001Z,4.90
2023-02-05T15:16:18.723Z,4.90
2023-02-05T15:18:55.176Z,4.80
2023-02-05T15:21:29.905Z,4.80
2023-02-05T15:24:13.882Z,4.70
2023-02-05T15:27:00.841Z,4.70
2023-02-05T15:29:33.870Z,4.70
2023-02-05T15:32:32.609Z,4.70
2023-02-05T15:35:05.349Z,4.80
2023-02-05T15:37:55.907Z,4.70
2023-02-05T15:40:26.745Z,4.70
2023-02-05T15:43:00.340Z,4.70
2023-02-05T15:45:31.944Z,4.60
2023-02-05T15:48:02.980Z,4.70
2023-02-05T15:50:31.245Z,4.70
2023-02-05T15:52:59.077Z,4.60
2023-02-05T15:55:28.999Z,4.60
2023-02-05T15:58:04.578Z,4.60
2023-02-05T16:00:33.735Z,4.60
2023-02-05T16:03:03.725Z,4.60
2023-02-05T16:05:32.028Z,4.60
2023-02-05T16:08:01.921Z,4.60
2023-02-05T16:10:34.864Z,4.60
2023-02-05T16:13:03.135Z,4.60
2023-02-05T16:15:34.295Z,4.60
2023-02-05T16:18:09.099Z,4.60
2023-02-05T16:20:42.197Z,4.60
2023-02-05T16:23:25.787Z,4.60
2023-02-05T16:26:22.663Z,4.50
2023-02-05T16:29:25.038Z,4.50
2023-02-05T16:32:04.351Z,4.50
2023-02-05T16:34:33.691Z,4.50
2023-02-05T16:37:06.207Z,4.40
2023-02-05T16:39:46.710Z,4.40
2023-02-05T16:42:35.235Z,4.40
2023-02-05T16:45:18.704Z,4.40
2023-02-05T16:48:05.802Z,4.40
2023-02-05T16:50:37.519Z,4.40
2023-02-05T16:53:26.125Z,4.40
2023-02-05T16:55:59.121Z,4.40
2023-02-05T16:58:31.852Z,4.40
2023-02-05T17:01:02.765Z,4.40
2023-02-05T17:03:38.781Z,4.40
2023-02-05T17:06:18.087Z,4.30
2023-02-05T17:08:55.827Z,4.30
2023-02-05T17:11:42.925Z,4.30
2023-02-05T17:14:26.139Z,4.30
2023-02-05T17:17:17.346Z,4.30
2023-02-05T17:19:47.448Z,4.30
2023-02-05T17:22:14.658Z,4.30
2023-02-05T17:24:48.182Z,4.40
2023-02-05T17:27:20.743Z,4.40
2023-02-05T17:29:48.165Z,4.30
2023-02-05T17:32:17.467Z,4.30
2023-02-05T17:34:45.497Z,4.30
2023-02-05T17:37:13.557Z,4.30
2023-02-05T17:39:43.434Z,4.30
2023-02-05T17:42:23.646Z,4.30
2023-02-05T17:44:53.918Z,4.30
2023-02-05T17:47:21.038Z,4.20
2023-02-05T17:49:47.877Z,4.20
2023-02-05T17:52:17.397Z,4.20
2023-02-05T17:54:46.274Z,4.20
2023-02-05T17:57:19.687Z,4.10
2023-02-05T17:59:47.760Z,4.10
2023-02-05T18:02:15.419Z,4.10
2023-02-05T18:04:43.617Z,4.10
2023-02-05T18:07:22.708Z,4.10
2023-02-05T18:09:49.674Z,4.10
2023-02-05T18:12:16.525Z,4.10
2023-02-05T18:14:43.733Z,4.10
2023-02-05T18:17:11.079Z,4.00
2023-02-05T18:19:37.921Z,4.00
2023-02-05T18:22:07.639Z,4.10
2023-02-05T18:24:37.117Z,4.10
2023-02-05T18:27:07.528Z,4.10
2023-02-05T18:29:35.438Z,4.10
2023-02-05T18:32:03.248Z,4.10
2023-02-05T18:34:30.064Z,4.10
2023-02-05T18:36:56.874Z,4.10
2023-02-05T18:39:28.751Z,4.00
2023-02-05T18:41:56.790Z,4.00
2023-02-05T18:44:24.281Z,4.10
2023-02-05T18:46:51.584Z,4.10
2023-02-05T18:49:18.460Z,4.10
2023-02-05T18:51:45.279Z,4.10
2023-02-05T18:54:12.491Z,4.10
2023-02-05T18:56:39.320Z,4.10
2023-02-05T18:59:09.194Z,4.10
2023-02-05T19:01:38.317Z,4.10
2023-02-05T19:04:11.627Z,4.10
2023-02-05T19:06:50.740Z,4.10
2023-02-05T19:09:18.139Z,4.10
2023-02-05T19:11:46.440Z,4.20
2023-02-05T19:14:15.643Z,4.20
2023-02-05T19:16:43.539Z,4.20
2023-02-05T19:19:16.504Z,4.20
2023-02-05T19:21:45.064Z,4.20
2023-02-05T19:24:13.802Z,4.20
2023-02-05T19:26:44.025Z,4.20
2023-02-05T19:29:16.972Z,4.20
2023-02-05T19:31:44.131Z,4.20
2023-02-05T19:34:11.528Z,4.20
2023-02-05T19:36:38.797Z,4.20
2023-02-05T19:39:08.636Z,4.20
2023-02-05T19:41:37.160Z,4.20
2023-02-05T19:44:06.608Z,4.10
2023-02-05T19:46:39.579Z,4.10
2023-02-05T19:49:25.316Z,4.10
2023-02-05T19:51:55.220Z,4.10
2023-02-05T19:54:22.730Z,4.20
2023-02-05T19:56:50.144Z,4.10
2023-02-05T19:59:17.459Z,4.10
2023-02-05T20:01:45.518Z,4.10
2023-02-05T20:04:22.329Z,4.10
2023-02-05T20:06:53.112Z,4.10
2023-02-05T20:09:23.175Z,4.10
2023-02-05T20:11:52.757Z,4.10
2023-02-05T20:14:20.709Z,4.10
2023-02-05T20:16:48.164Z,4.10
2023-02-05T20:19:17.546Z,4.00
2023-02-05T20:21:46.593Z,4.00
2023-02-05T20:24:16.816Z,4.00
2023-02-05T20:26:45.869Z,4.00
2023-02-05T20:29:31.396Z,4.00
2023-02-05T20:32:02.420Z,4.00
2023-02-05T20:34:35.712Z,4.00
2023-02-05T20:37:07.386Z,4.00
2023-02-05T20:39:42.064Z,4.00
2023-02-05T20:42:10.756Z,3.90
2023-02-05T20:44:37.725Z,3.90
2023-02-05T20:47:12.231Z,3.90
2023-02-05T20:49:41.145Z,4.00
2023-02-05T20:52:09.847Z,3.90
2023-02-05T20:54:37.194Z,3.90
2023-02-05T20:57:04.371Z,3.80
2023-02-05T20:59:36.573Z,3.80
2023-02-05T21:02:03.976Z,3.70
2023-02-05T21:04:30.918Z,3.70
2023-02-05T21:06:58.518Z,3.60
2023-02-05T21:09:25.496Z,3.60
2023-02-05T21:11:55.536Z,3.60
2023-02-05T21:14:23.608Z,3.70
2023-02-05T21:16:51.269Z,3.70
2023-02-05T21:19:18.615Z,3.80
2023-02-05T21:21:45.856Z,3.80
2023-02-05T21:24:15.560Z,3.80
2023-02-05T21:26:45.040Z,3.80
2023-02-05T21:29:17.032Z,3.80
2023-02-05T21:31:47.109Z,3.80
2023-02-05T21:34:16.612Z,3.80
2023-02-05T21:36:44.694Z,3.80
2023-02-05T21:39:12.517Z,3.80
2023-02-05T21:41:39.890Z,3.80
2023-02-05T21:44:06.924Z,3.80
2023-02-05T21:46:34.750Z,3.70
2023-02-05T21:49:02.194Z,3.80
2023-02-05T21:51:31.306Z,3.80
2023-02-05T21:54:02.481Z,3.80
2023-02-05T21:56:41.630Z,3.80
2023-02-05T21:59:13.601Z,3.80
2023-02-05T22:01:42.147Z,3.80
2023-02-05T22:04:12.930Z,3.80
2023-02-05T22:06:41.512Z,3.80
2023-02-05T22:09:11.430Z,3.80
2023-02-05T22:11:41.353Z,3.70
2023-02-05T22:14:09.160Z,3.80
2023-02-05T22:16:37.917Z,3.70
2023-02-05T22:19:06.093Z,3.60
2023-02-05T22:21:39.052Z,3.60
2023-02-05T22:24:07.118Z,3.50
2023-02-05T22:26:37.217Z,3.50
2023-02-05T22:29:06.511Z,3.40
2023-02-05T22:31:33.741Z,3.30
2023-02-05T22:34:00.748Z,3.20
2023-02-05T22:36:30.461Z,3.20
2023-02-05T22:38:58.298Z,3.10
2023-02-05T22:41:27.967Z,3.10
2023-02-05T22:43:56.594Z,3.10
2023-02-05T22:46:25.760Z,3.00
2023-02-05T22:48:55.186Z,3.00
2023-02-05T22:51:34.093Z,3.00
2023-02-05T22:54:01.439Z,2.90
2023-02-05T22:56:29.310Z,2.80
2023-02-05T22:58:57.108Z,2.80
2023-02-05T23:01:28.531Z,2.70
2023-02-05T23:03:57.150Z,2.70
2023-02-05T23:06:33.078Z,2.70
2023-02-05T23:09:02.720Z,2.70
2023-02-05T23:11:31.566Z,2.70
2023-02-05T23:13:59.888Z,2.70
2023-02-05T23:16:29.831Z,2.60
2023-02-05T23:19:00.572Z,2.50
2023-02-05T23:21:29.766Z,2.40
2023-02-05T23:23:59.638Z,2.50
2023-02-05T23:26:30.301Z,2.50
2023-02-05T23:28:57.830Z,2.50
2023-02-05T23:31:25.657Z,2.50
2023-02-05T23:33:53.549Z,2.40
2023-02-05T23:36:20.897Z,2.30
2023-02-05T23:38:48.552Z,2.40
2023-02-05T23:41:35.307Z,2.30
2023-02-05T23:44:18.220Z,2.40
2023-02-05T23:46:46.592Z,2.30
2023-02-05T23:49:13.994Z,2.40
2023-02-05T23:51:41.099Z,2.50
2023-02-05T23:54:10.123Z,2.60
2023-02-05T23:56:37.536Z,2.60
2023-02-05T23:59:06.178Z,2.60
